Time;durP1;ratioP1;P1;durP2;ratioP2;P2;SDS_P1;SDS_P2;PMS_P1;PMS_P2;Temp;Humidity;BMP_temperature;BMP_pressure;BME280_temperature;BME280_humidity;BME280_pressure;Samples;Min_cycle;Max_cycle;Signal;HPM_P1;HPM_P2
2023/11/03 01:54:21;;;;;;;1.43;1.23;;;;;;;;;;4919119;29;20185;-90
2023/11/03 01:57:25;;;;;;;2.63;2.03;;;;;;;;;;4898077;29;20724;-89
2023/11/03 02:00:30;;;;;;;3.47;2.00;;;;;;;;;;4920293;29;20185;-90
2023/11/03 02:03:34;;;;;;;2.67;1.30;;;;;;;;;;4898612;29;20189;-89
2023/11/03 02:06:39;;;;;;;1.67;1.10;;;;;;;;;;4920054;29;20224;-89
2023/11/03 02:09:42;;;;;;;1.00;0.90;;;;;;;;;;4898463;29;20220;-90
2023/11/03 02:12:46;;;;;;;2.30;1.00;;;;;;;;;;4909402;29;20180;-90
2023/11/03 02:15:50;;;;;;;4.43;2.27;;;;;;;;;;4909132;29;20189;-89
2023/11/03 02:18:55;;;;;;;6.77;5.23;;;;;;;;;;4909188;29;20189;-89
2023/11/03 02:21:58;;;;;;;7.70;5.00;;;;;;;;;;4909139;29;20534;-89
2023/11/03 02:25:03;;;;;;;3.93;3.30;;;;;;;;;;4909278;29;20186;-90
2023/11/03 02:28:07;;;;;;;6.57;4.07;;;;;;;;;;4908859;29;20189;-90
2023/11/03 02:31:12;;;;;;;2.90;2.53;;;;;;;;;;4919941;29;20185;-90
2023/11/03 02:34:16;;;;;;;6.40;4.37;;;;;;;;;;4920690;29;20193;-89
2023/11/03 02:37:20;;;;;;;5.93;4.63;;;;;;;;;;4908987;29;20224;-90
2023/11/03 02:40:24;;;;;;;4.93;2.80;;;;;;;;;;4909050;29;20181;-90
2023/11/03 02:43:28;;;;;;;2.00;1.50;;;;;;;;;;4897903;29;20184;-90
2023/11/03 02:46:32;;;;;;;2.10;1.90;;;;;;;;;;4908395;29;20228;-89
2023/11/03 02:49:36;;;;;;;3.00;2.27;;;;;;;;;;4897688;29;20212;-89
2023/11/03 02:52:40;;;;;;;2.77;2.40;;;;;;;;;;4897905;29;20185;-90
2023/11/03 02:55:44;;;;;;;3.37;2.10;;;;;;;;;;4897883;29;20646;-89
2023/11/03 02:58:48;;;;;;;2.30;1.90;;;;;;;;;;4919111;29;20189;-90
2023/11/03 03:01:52;;;;;;;3.90;1.87;;;;;;;;;;4919347;29;20185;-90
2023/11/03 03:04:56;;;;;;;1.73;1.43;;;;;;;;;;4908595;29;20189;-90
2023/11/03 03:08:00;;;;;;;2.07;1.57;;;;;;;;;;4897525;29;20189;-90
2023/11/03 03:11:04;;;;;;;3.73;2.03;;;;;;;;;;4908101;29;20209;-89
2023/11/03 03:14:09;;;;;;;2.80;2.10;;;;;;;;;;4919011;29;20189;-89
2023/11/03 03:17:13;;;;;;;2.20;1.80;;;;;;;;;;4897450;29;20228;-89
2023/11/03 03:20:17;;;;;;;2.20;1.70;;;;;;;;;;4919222;29;20185;-89
2023/11/03 03:23:22;;;;;;;2.13;1.63;;;;;;;;;;4897450;29;20189;-90
2023/11/03 03:26:26;;;;;;;3.47;1.57;;;;;;;;;;4897129;29;20232;-89
2023/11/03 03:29:30;;;;;;;4.63;2.83;;;;;;;;;;4918730;29;20682;-90
2023/11/03 03:32:35;;;;;;;15.27;9.23;;;;;;;;;;4918758;29;20189;-90
2023/11/03 03:35:38;;;;;;;14.40;9.33;;;;;;;;;;4897083;29;20193;-90
2023/11/03 03:38:43;;;;;;;13.70;7.40;;;;;;;;;;4908209;29;20193;-90
2023/11/03 03:41:54;;;;;;;14.37;9.03;;;;;;;;;;4907982;29;20185;-90
2023/11/03 03:44:58;;;;;;;7.80;4.87;;;;;;;;;;4907656;29;20189;-90
2023/11/03 03:48:03;;;;;;;3.57;2.90;;;;;;;;;;4918335;29;20642;-90
2023/11/03 03:51:07;;;;;;;6.30;2.17;;;;;;;;;;4907599;29;20221;-89
2023/11/03 03:54:11;;;;;;;3.17;2.80;;;;;;;;;;4918698;29;20189;-90
2023/11/03 03:57:15;;;;;;;13.47;7.90;;;;;;;;;;4896828;29;20232;-90
2023/11/03 04:00:19;;;;;;;18.37;10.57;;;;;;;;;;4907578;29;20181;-89
2023/11/03 04:03:23;;;;;;;10.50;7.23;;;;;;;;;;4917990;29;20185;-90
2023/11/03 04:06:27;;;;;;;6.03;4.17;;;;;;;;;;4917946;29;20225;-89
2023/11/03 04:09:31;;;;;;;4.47;3.17;;;;;;;;;;4917985;29;20185;-89
2023/11/03 04:12:35;;;;;;;2.73;2.40;;;;;;;;;;4907143;29;20190;-90
2023/11/03 04:15:39;;;;;;;4.27;2.30;;;;;;;;;;4896293;29;20185;-89
2023/11/03 04:18:45;;;;;;;2.77;2.20;;;;;;;;;;4907058;29;20561;-89
2023/11/03 04:21:49;;;;;;;6.37;2.87;;;;;;;;;;4907113;29;20185;-90
2023/11/03 04:24:53;;;;;;;3.50;2.70;;;;;;;;;;4907036;29;20189;-90
2023/11/03 04:27:57;;;;;;;3.67;2.80;;;;;;;;;;4896474;29;20216;-90
2023/11/03 04:31:01;;;;;;;3.80;2.07;;;;;;;;;;4906815;29;20205;-90
2023/11/03 04:34:05;;;;;;;7.17;2.10;;;;;;;;;;4917607;29;20546;-89
2023/11/03 04:37:10;;;;;;;3.80;1.90;;;;;;;;;;4895968;29;20607;-89
2023/11/03 04:40:14;;;;;;;3.93;1.70;;;;;;;;;;4906897;29;20180;-90
2023/11/03 04:43:20;;;;;;;4.33;1.77;;;;;;;;;;4896064;29;20224;-90
2023/11/03 04:46:24;;;;;;;3.10;1.70;;;;;;;;;;4895880;29;20224;-90
2023/11/03 04:49:30;;;;;;;3.83;1.90;;;;;;;;;;4895840;29;20188;-90
2023/11/03 04:52:34;;;;;;;1.60;1.40;;;;;;;;;;4895819;29;20189;-89
2023/11/03 04:55:38;;;;;;;2.80;1.90;;;;;;;;;;4917316;29;20185;-90
2023/11/03 04:58:42;;;;;;;3.87;1.80;;;;;;;;;;4895628;29;20185;-90
2023/11/03 05:01:46;;;;;;;4.90;1.90;;;;;;;;;;4906469;29;20180;-90
2023/11/03 05:04:50;;;;;;;4.23;1.80;;;;;;;;;;4906260;29;20650;-90
2023/11/03 05:07:55;;;;;;;2.13;1.90;;;;;;;;;;4895395;29;20228;-90
2023/11/03 05:11:01;;;;;;;4.20;1.90;;;;;;;;;;4917025;29;20216;-90
2023/11/03 05:14:05;;;;;;;3.47;1.90;;;;;;;;;;4895819;29;20185;-90
2023/11/03 05:17:09;;;;;;;4.27;1.93;;;;;;;;;;4906065;29;20225;-90
2023/11/03 05:20:14;;;;;;;3.53;2.27;;;;;;;;;;4917312;29;20188;-90
2023/11/03 05:23:18;;;;;;;3.70;1.73;;;;;;;;;;4895250;29;20192;-90
2023/11/03 05:26:23;;;;;;;2.40;1.90;;;;;;;;;;4906324;29;20220;-90
2023/11/03 05:29:27;;;;;;;2.50;1.90;;;;;;;;;;4906228;29;20197;-90
2023/11/03 05:32:33;;;;;;;3.43;2.27;;;;;;;;;;4906283;29;20185;-90
2023/11/03 05:35:38;;;;;;;3.43;1.93;;;;;;;;;;4906474;29;20180;-90
2023/11/03 05:38:43;;;;;;;4.90;2.63;;;;;;;;;;4895556;29;20188;-90
2023/11/03 05:41:47;;;;;;;7.43;2.37;;;;;;;;;;4895362;29;20639;-90
2023/11/03 05:44:52;;;;;;;7.03;2.80;;;;;;;;;;4916727;29;20189;-90
2023/11/03 05:47:56;;;;;;;6.47;2.40;;;;;;;;;;4895131;29;20702;-90
2023/11/03 05:51:00;;;;;;;5.70;2.50;;;;;;;;;;4906353;29;20212;-90
2023/11/03 05:54:05;;;;;;;5.27;2.50;;;;;;;;;;4895335;29;20193;-90
2023/11/03 05:57:10;;;;;;;5.50;2.70;;;;;;;;;;4894974;29;20232;-89
2023/11/03 06:00:14;;;;;;;6.37;2.93;;;;;;;;;;4895274;29;20189;-90
2023/11/03 06:03:18;;;;;;;3.13;2.33;;;;;;;;;;4916774;29;20185;-90
2023/11/03 06:06:22;;;;;;;5.17;3.07;;;;;;;;;;4906003;29;20228;-90
2023/11/03 06:09:28;;;;;;;5.87;2.80;;;;;;;;;;4895266;29;20582;-90
2023/11/03 06:12:32;;;;;;;12.33;7.47;;;;;;;;;;4916717;29;20189;-90
2023/11/03 06:15:37;;;;;;;13.90;8.17;;;;;;;;;;4905560;29;20185;-90
2023/11/03 06:18:41;;;;;;;9.47;7.03;;;;;;;;;;4895274;29;20185;-92
2023/11/03 06:21:45;;;;;;;8.67;5.03;;;;;;;;;;4895155;29;20191;-90
2023/11/03 06:24:50;;;;;;;8.63;4.43;;;;;;;;;;4905881;29;20189;-92
2023/11/03 06:27:55;;;;;;;5.00;2.93;;;;;;;;;;4894835;29;20220;-90
2023/11/03 06:30:59;;;;;;;5.83;3.23;;;;;;;;;;4905816;29;20217;-90
2023/11/03 06:34:03;;;;;;;6.23;2.73;;;;;;;;;;4895827;29;20192;-89
2023/11/03 06:37:08;;;;;;;5.43;2.93;;;;;;;;;;4898186;29;20236;-89
2023/11/03 06:40:12;;;;;;;9.40;4.23;;;;;;;;;;4921016;29;20189;-88
2023/11/03 06:43:16;;;;;;;16.23;8.97;;;;;;;;;;4908841;29;20189;-89
2023/11/03 06:46:22;;;;;;;11.77;7.03;;;;;;;;;;4908677;29;20224;-89
2023/11/03 06:49:27;;;;;;;8.07;5.20;;;;;;;;;;4908689;29;20531;-89
2023/11/03 06:52:31;;;;;;;6.63;4.43;;;;;;;;;;4897700;29;20189;-89
2023/11/03 06:55:35;;;;;;;5.93;3.77;;;;;;;;;;4908683;29;20189;-89
2023/11/03 06:58:39;;;;;;;6.60;4.40;;;;;;;;;;4908786;29;20189;-89
2023/11/03 07:01:44;;;;;;;5.80;3.80;;;;;;;;;;4908484;29;20185;-89
2023/11/03 07:04:48;;;;;;;6.80;5.10;;;;;;;;;;4897872;29;20193;-89
2023/11/03 07:07:52;;;;;;;7.67;4.53;;;;;;;;;;4897518;29;20220;-89
2023/11/03 07:10:59;;;;;;;8.77;3.87;;;;;;;;;;4897710;29;20220;-88
2023/11/03 07:14:05;;;;;;;6.37;3.10;;;;;;;;;;4897262;29;20189;-89
2023/11/03 07:17:09;;;;;;;5.93;3.57;;;;;;;;;;4908177;29;20225;-89
2023/11/03 07:20:14;;;;;;;3.93;2.80;;;;;;;;;;4897699;29;20188;-89
2023/11/03 07:23:21;;;;;;;8.37;2.73;;;;;;;;;;4908385;29;20189;-89
2023/11/03 07:26:28;;;;;;;7.23;3.37;;;;;;;;;;4897507;29;20224;-89
2023/11/03 07:29:32;;;;;;;4.73;3.20;;;;;;;;;;4897604;29;20528;-89
2023/11/03 07:32:36;;;;;;;4.30;3.33;;;;;;;;;;4908104;29;20213;-89
2023/11/03 07:35:40;;;;;;;7.87;4.07;;;;;;;;;;4907790;29;20188;-89
2023/11/03 07:38:44;;;;;;;4.33;3.10;;;;;;;;;;4908058;29;20192;-89
2023/11/03 07:41:48;;;;;;;5.87;3.07;;;;;;;;;;4897273;29;20193;-89
2023/11/03 07:44:53;;;;;;;4.90;2.70;;;;;;;;;;4896865;29;20201;-88
2023/11/03 07:47:56;;;;;;;5.60;3.17;;;;;;;;;;4907580;29;20230;-89
2023/11/03 07:51:01;;;;;;;4.20;2.80;;;;;;;;;;4907822;29;20221;-89
2023/11/03 07:54:06;;;;;;;4.67;2.80;;;;;;;;;;4897026;29;20185;-89
2023/11/03 07:57:11;;;;;;;3.93;2.47;;;;;;;;;;4896521;29;20228;-87
2023/11/03 08:00:15;;;;;;;2.87;2.30;;;;;;;;;;4907612;29;20185;-89
2023/11/03 08:03:19;;;;;;;3.03;2.40;;;;;;;;;;4897018;29;20192;-89
2023/11/03 08:06:24;;;;;;;4.40;2.43;;;;;;;;;;4896517;29;20705;-89
2023/11/03 08:09:30;;;;;;;4.03;1.90;;;;;;;;;;4896909;29;20232;-89
2023/11/03 08:12:35;;;;;;;5.27;2.40;;;;;;;;;;4896495;29;20221;-89
2023/11/03 08:15:40;;;;;;;3.07;2.33;;;;;;;;;;4907005;29;20197;-89
2023/11/03 08:18:45;;;;;;;3.07;2.20;;;;;;;;;;4907384;29;20627;-89
2023/11/03 08:21:49;;;;;;;4.80;2.50;;;;;;;;;;4907325;29;20181;-85
2023/11/03 08:24:53;;;;;;;7.17;2.70;;;;;;;;;;4918092;29;20189;-85
2023/11/03 08:27:59;;;;;;;4.87;1.80;;;;;;;;;;4906671;29;20232;-85
2023/11/03 08:31:03;;;;;;;5.87;2.50;;;;;;;;;;4907080;29;20217;-84
2023/11/03 08:34:08;;;;;;;3.87;2.00;;;;;;;;;;4896294;29;20189;-85
2023/11/03 08:37:12;;;;;;;5.60;2.50;;;;;;;;;;4896681;29;20224;-85
2023/11/03 08:40:16;;;;;;;4.77;2.53;;;;;;;;;;4907125;29;20188;-85
2023/11/03 08:43:20;;;;;;;5.43;2.30;;;;;;;;;;4895633;29;20184;-85
2023/11/03 08:47:14;;;;;;;5.10;2.27;;;;;;;;;;4906582;29;20220;-87
2023/11/03 08:50:31;;;;;;;4.10;2.00;;;;;;;;;;4917583;29;20189;-87
2023/11/03 09:39:39;;;;;;;6.00;2.13;;;;;;;;;;4918436;29;20213;-87
2023/11/03 10:03:10;;;;;;;5.70;2.87;;;;;;;;;;4878451;29;20221;-87
2023/11/03 10:06:14;;;;;;;18.37;11.73;;;;;;;;;;4879788;29;20694;-87
2023/11/03 10:09:18;;;;;;;6.60;2.73;;;;;;;;;;4907324;29;20193;-87
2023/11/03 10:12:24;;;;;;;5.90;2.67;;;;;;;;;;4898922;29;20220;-87
2023/11/03 10:15:29;;;;;;;11.23;3.97;;;;;;;;;;4898802;29;20197;-86
2023/11/03 10:18:37;;;;;;;5.63;2.60;;;;;;;;;;4899014;29;20193;-87
2023/11/03 10:21:41;;;;;;;2.93;2.50;;;;;;;;;;4898394;29;20185;-87
2023/11/03 10:24:45;;;;;;;3.53;2.00;;;;;;;;;;4898611;29;20531;-87
2023/11/03 10:27:49;;;;;;;5.87;1.83;;;;;;;;;;4909062;29;20229;-87
2023/11/03 10:30:57;;;;;;;7.57;2.70;;;;;;;;;;4898074;29;20189;-86
2023/11/03 10:34:02;;;;;;;4.20;2.30;;;;;;;;;;4909129;29;20182;-87
2023/11/03 10:37:06;;;;;;;4.63;2.00;;;;;;;;;;4908852;29;20224;-86
2023/11/03 10:40:14;;;;;;;8.03;3.20;;;;;;;;;;4908740;29;20531;-86
2023/11/03 10:43:23;;;;;;;4.37;2.30;;;;;;;;;;4909138;29;20189;-87
2023/11/03 10:46:37;;;;;;;3.23;1.67;;;;;;;;;;4908910;29;20295;-87
2023/11/03 10:49:46;;;;;;;8.27;2.70;;;;;;;;;;4898300;29;20189;-87
2023/11/03 10:53:31;;;;;;;6.03;1.80;;;;;;;;;;4897943;29;20223;-87
2023/11/03 10:56:36;;;;;;;7.07;1.73;;;;;;;;;;4904658;29;20220;-87
2023/11/03 10:59:49;;;;;;;9.13;1.80;;;;;;;;;;4908943;29;20192;-87
2023/11/03 11:03:17;;;;;;;5.00;1.40;;;;;;;;;;4898286;29;20562;-87
2023/11/03 11:06:34;;;;;;;6.50;1.60;;;;;;;;;;4898299;29;20225;-87
2023/11/03 11:09:45;;;;;;;5.53;2.00;;;;;;;;;;4919535;29;20193;-87
2023/11/03 11:12:51;;;;;;;6.17;2.47;;;;;;;;;;4898071;29;20217;-86
2023/11/03 11:15:58;;;;;;;5.07;2.23;;;;;;;;;;4908561;29;20236;-87
2023/11/03 11:19:06;;;;;;;5.30;1.80;;;;;;;;;;4908410;29;20185;-87
2023/11/03 11:22:18;;;;;;;2.93;1.60;;;;;;;;;;4907395;29;20189;-86
2023/11/03 11:25:26;;;;;;;4.73;2.03;;;;;;;;;;4919091;29;20181;-86
2023/11/03 11:28:35;;;;;;;8.50;2.10;;;;;;;;;;4907847;29;20272;-88
2023/11/03 11:31:40;;;;;;;7.10;2.10;;;;;;;;;;4897116;29;20185;-86
2023/11/03 11:34:47;;;;;;;4.77;2.10;;;;;;;;;;4907856;29;20288;-86
2023/11/03 11:37:51;;;;;;;4.53;1.80;;;;;;;;;;4897121;29;20225;-90
2023/11/03 11:40:56;;;;;;;4.10;1.87;;;;;;;;;;4897420;29;20185;-89
2023/11/03 11:44:04;;;;;;;6.60;2.10;;;;;;;;;;4907924;29;20189;-90
2023/11/03 11:47:17;;;;;;;5.03;2.07;;;;;;;;;;4908949;29;20224;-90
2023/11/03 11:50:21;;;;;;;5.20;1.93;;;;;;;;;;4918775;29;20646;-90
2023/11/03 11:53:25;;;;;;;4.30;1.83;;;;;;;;;;4908127;29;20216;-90
2023/11/03 11:56:29;;;;;;;2.20;1.60;;;;;;;;;;4907932;29;20224;-90
2023/11/03 11:59:35;;;;;;;3.50;2.00;;;;;;;;;;4918460;29;20185;-90
2023/11/03 12:02:39;;;;;;;5.17;1.90;;;;;;;;;;4907863;29;20208;-90
2023/11/03 12:05:44;;;;;;;8.83;2.27;;;;;;;;;;4896975;29;20185;-89
2023/11/03 12:08:51;;;;;;;6.83;2.10;;;;;;;;;;4918299;29;20193;-90
2023/11/03 12:11:55;;;;;;;3.07;1.80;;;;;;;;;;4918238;29;20694;-90
2023/11/03 12:15:01;;;;;;;4.37;2.27;;;;;;;;;;4907245;29;20650;-90
2023/11/03 12:18:05;;;;;;;3.70;1.60;;;;;;;;;;4896719;29;20192;-90
2023/11/03 12:21:09;;;;;;;4.37;1.80;;;;;;;;;;4906977;29;20193;-88
2023/11/03 12:24:14;;;;;;;6.27;1.70;;;;;;;;;;4907157;29;20181;-88
2023/11/03 12:27:19;;;;;;;4.13;1.80;;;;;;;;;;4906752;29;20224;-88
2023/11/03 12:30:23;;;;;;;3.67;1.70;;;;;;;;;;4907259;29;20189;-88
2023/11/03 12:33:38;;;;;;;4.03;1.33;;;;;;;;;;4906710;29;20213;-88
2023/11/03 12:36:44;;;;;;;5.80;1.80;;;;;;;;;;4896047;29;20224;-89
2023/11/03 12:39:54;;;;;;;4.67;2.00;;;;;;;;;;4906942;29;20192;-88
2023/11/03 12:43:15;;;;;;;4.53;1.90;;;;;;;;;;4896644;29;20185;-89
2023/11/03 12:46:19;;;;;;;4.33;1.60;;;;;;;;;;4906836;29;20220;-89
2023/11/03 12:49:26;;;;;;;4.20;1.80;;;;;;;;;;4896844;29;20560;-89
2023/11/03 12:52:30;;;;;;;3.47;1.80;;;;;;;;;;4906860;29;20666;-89
2023/11/03 12:55:34;;;;;;;3.93;1.67;;;;;;;;;;4895780;29;20193;-89
2023/11/03 12:58:38;;;;;;;4.73;2.00;;;;;;;;;;4917650;29;20193;-89
2023/11/03 13:01:44;;;;;;;4.93;2.10;;;;;;;;;;4908482;29;20212;-88
2023/11/03 13:04:48;;;;;;;2.70;1.90;;;;;;;;;;4885700;29;20184;-89
2023/11/03 13:07:57;;;;;;;4.90;2.30;;;;;;;;;;4895936;29;20229;-88
2023/11/03 13:11:07;;;;;;;6.03;2.40;;;;;;;;;;4896235;29;20188;-89
2023/11/03 13:14:18;;;;;;;9.50;3.83;;;;;;;;;;4896130;29;20221;-89
2023/11/03 13:17:22;;;;;;;6.80;3.30;;;;;;;;;;4895667;29;20216;-89
2023/11/03 13:20:26;;;;;;;11.20;7.23;;;;;;;;;;4895612;29;20185;-88
2023/11/03 13:23:30;;;;;;;10.57;3.80;;;;;;;;;;4895260;29;20189;-89
2023/11/03 13:26:38;;;;;;;9.60;4.30;;;;;;;;;;4906245;29;20220;-89
2023/11/03 13:29:42;;;;;;;9.63;7.30;;;;;;;;;;4895446;29;20193;-89
2023/11/03 13:32:49;;;;;;;4.83;2.87;;;;;;;;;;4895239;29;20217;-88
2023/11/03 13:35:53;;;;;;;5.27;2.47;;;;;;;;;;4916957;29;20212;-89
2023/11/03 13:39:02;;;;;;;5.27;3.67;;;;;;;;;;4896342;29;20188;-89
2023/11/03 13:42:09;;;;;;;6.33;2.53;;;;;;;;;;4905975;29;20559;-89
2023/11/03 13:45:18;;;;;;;3.77;2.30;;;;;;;;;;4908784;29;20189;-88
2023/11/03 13:48:28;;;;;;;8.53;4.20;;;;;;;;;;4909921;29;20180;-88
2023/11/03 13:51:37;;;;;;;3.43;2.40;;;;;;;;;;4909470;29;20189;-88
2023/11/03 13:54:46;;;;;;;5.40;2.93;;;;;;;;;;4899248;29;20185;-89
2023/11/03 13:57:55;;;;;;;3.67;2.30;;;;;;;;;;4899252;29;20225;-89
2023/11/03 14:01:01;;;;;;;5.63;2.10;;;;;;;;;;4909766;29;20184;-89
2023/11/03 14:04:06;;;;;;;5.73;2.00;;;;;;;;;;4898942;29;20197;-89
2023/11/03 14:07:11;;;;;;;4.20;2.67;;;;;;;;;;4920743;29;20228;-88
2023/11/03 14:10:14;;;;;;;24.23;11.73;;;;;;;;;;4899710;29;20184;-89
2023/11/03 14:13:18;;;;;;;7.00;4.83;;;;;;;;;;4921585;29;20216;-89
2023/11/03 14:16:23;;;;;;;4.93;3.20;;;;;;;;;;4899832;29;20217;-89
2023/11/03 14:19:34;;;;;;;3.30;2.73;;;;;;;;;;4912916;29;20189;-88
2023/11/03 14:22:41;;;;;;;6.67;2.70;;;;;;;;;;4909601;29;20181;-89
2023/11/03 14:25:45;;;;;;;7.63;5.63;;;;;;;;;;4898297;29;20185;-89
2023/11/03 14:28:50;;;;;;;7.53;3.67;;;;;;;;;;4908936;29;20189;-89
2023/11/03 14:31:56;;;;;;;4.27;3.30;;;;;;;;;;4898139;29;20531;-89
2023/11/03 14:35:04;;;;;;;7.03;3.40;;;;;;;;;;4919542;29;20181;-89
2023/11/03 14:38:09;;;;;;;8.13;4.30;;;;;;;;;;4897922;29;20185;-88
2023/11/03 14:41:14;;;;;;;6.23;2.67;;;;;;;;;;4898215;29;20185;-89
2023/11/03 14:44:21;;;;;;;4.50;2.70;;;;;;;;;;4898408;29;20642;-89
2023/11/03 14:47:25;;;;;;;24.40;13.43;;;;;;;;;;4897886;29;20725;-89
2023/11/03 14:50:33;;;;;;;14.17;9.37;;;;;;;;;;4908652;29;20189;-90
2023/11/03 14:53:42;;;;;;;11.77;6.60;;;;;;;;;;4909017;29;20213;-89
2023/11/03 14:57:02;;;;;;;12.53;6.63;;;;;;;;;;4908272;29;20233;-89
2023/11/03 15:00:11;;;;;;;12.33;5.83;;;;;;;;;;4908604;29;20189;-88
2023/11/03 15:03:15;;;;;;;8.90;4.50;;;;;;;;;;4919551;29;20567;-89
2023/11/03 15:06:21;;;;;;;19.40;9.47;;;;;;;;;;4897417;29;20228;-89
2023/11/03 15:09:25;;;;;;;11.30;6.90;;;;;;;;;;4908407;29;20189;-89
2023/11/03 15:12:30;;;;;;;6.40;3.63;;;;;;;;;;4908103;29;20189;-89
2023/11/03 15:15:37;;;;;;;5.17;3.73;;;;;;;;;;4907958;29;20185;-88
2023/11/03 15:18:42;;;;;;;10.43;6.53;;;;;;;;;;4907936;29;20189;-88
2023/11/03 15:21:48;;;;;;;9.90;4.80;;;;;;;;;;4907970;29;20193;-89
2023/11/03 15:24:52;;;;;;;8.57;5.27;;;;;;;;;;4907794;29;20185;-88
2023/11/03 15:27:57;;;;;;;9.37;4.87;;;;;;;;;;4907742;29;20229;-88
2023/11/03 15:31:04;;;;;;;4.50;2.10;;;;;;;;;;4907833;29;20200;-88
2023/11/03 15:34:11;;;;;;;7.20;3.87;;;;;;;;;;4897394;29;20225;-89
2023/11/03 15:37:17;;;;;;;16.30;7.90;;;;;;;;;;4907410;29;20229;-89
2023/11/03 15:40:23;;;;;;;7.63;4.73;;;;;;;;;;4896851;29;20650;-89
2023/11/03 15:43:28;;;;;;;8.77;4.33;;;;;;;;;;4907539;29;20188;-88
2023/11/03 15:46:32;;;;;;;15.47;8.70;;;;;;;;;;4907371;29;20591;-89
2023/11/03 15:49:36;;;;;;;11.13;4.90;;;;;;;;;;4907233;29;20185;-88
2023/11/03 15:52:44;;;;;;;8.03;4.50;;;;;;;;;;4907455;29;20189;-89
2023/11/03 15:55:52;;;;;;;11.47;6.40;;;;;;;;;;4907494;29;20197;-89
2023/11/03 15:59:03;;;;;;;12.17;7.13;;;;;;;;;;4897548;29;20535;-89
2023/11/03 16:02:08;;;;;;;8.77;4.03;;;;;;;;;;4896934;29;20208;-89
2023/11/03 16:05:12;;;;;;;8.63;3.07;;;;;;;;;;4908104;29;20184;-89
2023/11/03 16:08:17;;;;;;;5.83;2.97;;;;;;;;;;4907271;29;20181;-90
2023/11/03 16:11:23;;;;;;;3.90;2.60;;;;;;;;;;4907182;29;20185;-90
2023/11/03 16:14:29;;;;;;;16.60;7.33;;;;;;;;;;4906855;29;20217;-90
2023/11/03 16:17:34;;;;;;;12.10;5.90;;;;;;;;;;4896378;29;20228;-89
2023/11/03 16:20:38;;;;;;;11.37;6.83;;;;;;;;;;4896381;29;20193;-90
2023/11/03 16:23:43;;;;;;;5.83;2.40;;;;;;;;;;4896152;29;20184;-90
2023/11/03 16:26:48;;;;;;;4.67;2.60;;;;;;;;;;4917968;29;20221;-90
2023/11/03 16:29:57;;;;;;;6.57;3.60;;;;;;;;;;4906897;29;20651;-90
2023/11/03 16:33:01;;;;;;;3.83;2.13;;;;;;;;;;4896130;29;20192;-91
2023/11/03 16:36:05;;;;;;;7.63;3.77;;;;;;;;;;4896408;29;20705;-90
2023/11/03 16:39:09;;;;;;;6.03;3.17;;;;;;;;;;4895961;29;20194;-89
2023/11/03 16:42:13;;;;;;;8.60;3.40;;;;;;;;;;4896347;29;20193;-91
2023/11/03 16:45:17;;;;;;;6.60;4.00;;;;;;;;;;4906707;29;20185;-90
2023/11/03 16:48:26;;;;;;;14.67;7.63;;;;;;;;;;4895981;29;20193;-90
2023/11/03 16:51:30;;;;;;;20.13;12.33;;;;;;;;;;4917411;29;20185;-90
2023/11/03 16:54:35;;;;;;;25.37;15.27;;;;;;;;;;4895709;29;20682;-90
2023/11/03 16:57:43;;;;;;;19.83;10.87;;;;;;;;;;4895810;29;20221;-90
2023/11/03 17:00:50;;;;;;;10.63;6.73;;;;;;;;;;4906952;29;20189;-90
2023/11/03 17:03:54;;;;;;;12.27;8.07;;;;;;;;;;4906474;29;20658;-89
2023/11/03 17:06:59;;;;;;;9.07;4.53;;;;;;;;;;4906284;29;20228;-90
2023/11/03 17:10:04;;;;;;;8.80;5.30;;;;;;;;;;4895840;29;20554;-89
2023/11/03 17:13:08;;;;;;;6.37;3.73;;;;;;;;;;4906172;29;20189;-90
2023/11/03 17:16:13;;;;;;;9.60;4.43;;;;;;;;;;4917356;29;20217;-89
2023/11/03 17:19:18;;;;;;;7.30;3.70;;;;;;;;;;4905627;29;20189;-90
2023/11/03 17:22:23;;;;;;;2.80;1.90;;;;;;;;;;4906137;29;20558;-90
2023/11/03 17:25:27;;;;;;;6.90;3.97;;;;;;;;;;4906102;29;20185;-91
2023/11/03 17:28:32;;;;;;;9.03;4.70;;;;;;;;;;4895363;29;20184;-91
2023/11/03 17:31:39;;;;;;;7.33;5.50;;;;;;;;;;4906508;29;20185;-91
2023/11/03 17:34:43;;;;;;;5.67;3.17;;;;;;;;;;4895303;29;20217;-90
2023/11/03 17:37:47;;;;;;;3.63;2.20;;;;;;;;;;4905655;29;20216;-91
2023/11/03 17:40:53;;;;;;;3.40;2.10;;;;;;;;;;4905956;29;20185;-90
2023/11/03 17:43:57;;;;;;;4.10;2.40;;;;;;;;;;4906071;29;20638;-91
2023/11/03 17:47:03;;;;;;;4.10;2.47;;;;;;;;;;4916616;29;20228;-91
2023/11/03 17:50:10;;;;;;;2.70;2.23;;;;;;;;;;4916600;29;20189;-90
2023/11/03 17:53:15;;;;;;;4.40;3.30;;;;;;;;;;4916550;29;20185;-90
2023/11/03 17:56:20;;;;;;;5.30;2.80;;;;;;;;;;4905660;29;20710;-90
2023/11/03 17:59:26;;;;;;;8.60;5.53;;;;;;;;;;4916847;29;20185;-90
2023/11/03 18:02:29;;;;;;;7.30;3.93;;;;;;;;;;4905925;29;20213;-91
2023/11/03 18:05:33;;;;;;;5.00;2.10;;;;;;;;;;4916579;29;20185;-91
2023/11/03 18:08:38;;;;;;;4.77;2.10;;;;;;;;;;4905593;29;20643;-90
2023/11/03 18:11:42;;;;;;;4.07;2.60;;;;;;;;;;4905602;29;20189;-90
2023/11/03 18:14:46;;;;;;;4.10;1.73;;;;;;;;;;4905872;29;20212;-91
2023/11/03 18:17:51;;;;;;;2.30;1.27;;;;;;;;;;4905757;29;20220;-90
2023/11/03 18:20:55;;;;;;;3.53;1.30;;;;;;;;;;4905440;29;20185;-91
2023/11/03 18:24:01;;;;;;;4.00;1.33;;;;;;;;;;4905559;29;20181;-91
2023/11/03 18:27:05;;;;;;;4.90;1.77;;;;;;;;;;4894728;29;20702;-91
2023/11/03 18:30:10;;;;;;;3.80;1.77;;;;;;;;;;4906397;29;20184;-91
2023/11/03 18:33:15;;;;;;;2.40;1.10;;;;;;;;;;4898364;29;20188;-90
2023/11/03 18:36:19;;;;;;;3.53;1.10;;;;;;;;;;4909056;29;20220;-91
2023/11/03 18:39:23;;;;;;;1.40;1.07;;;;;;;;;;4898252;29;20181;-91
2023/11/03 18:42:29;;;;;;;1.47;1.00;;;;;;;;;;4898138;29;20193;-90
2023/11/03 18:45:33;;;;;;;3.63;1.27;;;;;;;;;;4909115;29;20181;-91
2023/11/03 18:48:38;;;;;;;3.63;1.67;;;;;;;;;;4919501;29;20188;-91
2023/11/03 18:51:42;;;;;;;2.20;1.60;;;;;;;;;;4897684;29;20184;-90
2023/11/03 18:54:47;;;;;;;3.83;1.67;;;;;;;;;;4908855;29;20212;-91
2023/11/03 18:57:50;;;;;;;3.73;1.77;;;;;;;;;;4897634;29;20223;-90
2023/11/03 19:00:56;;;;;;;2.17;1.30;;;;;;;;;;4908875;29;20484;-89
2023/11/03 19:04:00;;;;;;;4.17;1.53;;;;;;;;;;4897859;29;20181;-89
2023/11/03 19:07:06;;;;;;;5.10;1.70;;;;;;;;;;4908326;29;20710;-89
2023/11/03 19:10:11;;;;;;;3.83;1.90;;;;;;;;;;4897602;29;20189;-89
2023/11/03 19:13:15;;;;;;;2.00;1.80;;;;;;;;;;4897374;29;20193;-89
2023/11/03 19:16:19;;;;;;;3.77;1.80;;;;;;;;;;4908457;29;20221;-89
2023/11/03 19:19:23;;;;;;;4.20;2.13;;;;;;;;;;4908426;29;20193;-88
2023/11/03 19:22:27;;;;;;;5.77;1.60;;;;;;;;;;4908496;29;20189;-89
2023/11/03 19:25:33;;;;;;;2.80;1.63;;;;;;;;;;4908389;29;20192;-89
2023/11/03 19:28:37;;;;;;;4.00;1.80;;;;;;;;;;4908278;29;20639;-90
2023/11/03 19:31:41;;;;;;;1.97;1.53;;;;;;;;;;4908003;29;20192;-90
2023/11/03 19:34:45;;;;;;;2.30;1.80;;;;;;;;;;4908470;29;20220;-90
2023/11/03 19:37:49;;;;;;;3.43;1.67;;;;;;;;;;4897454;29;20224;-89
2023/11/03 19:40:53;;;;;;;4.53;2.20;;;;;;;;;;4907861;29;20185;-88
2023/11/03 19:43:57;;;;;;;3.20;1.73;;;;;;;;;;4908137;29;20189;-89
2023/11/03 19:47:04;;;;;;;3.93;2.13;;;;;;;;;;4907753;29;20259;-88
2023/11/03 19:50:09;;;;;;;2.90;2.00;;;;;;;;;;4896874;29;20193;-88
2023/11/03 19:53:15;;;;;;;2.03;1.80;;;;;;;;;;4907953;29;20188;-89
2023/11/03 19:56:20;;;;;;;3.40;2.40;;;;;;;;;;4896629;29;20240;-89
2023/11/03 19:59:27;;;;;;;3.30;2.30;;;;;;;;;;4907789;29;20185;-89
2023/11/03 20:02:33;;;;;;;3.40;2.30;;;;;;;;;;4907245;29;20678;-89
2023/11/03 20:05:38;;;;;;;3.47;2.10;;;;;;;;;;4907798;29;20193;-89
2023/11/03 20:08:42;;;;;;;2.50;2.10;;;;;;;;;;4897029;29;20193;-89
2023/11/03 20:11:47;;;;;;;3.27;2.43;;;;;;;;;;4907805;29;20638;-88
2023/11/03 20:14:51;;;;;;;5.10;3.17;;;;;;;;;;4896627;29;20221;-89
2023/11/03 20:17:55;;;;;;;4.93;2.50;;;;;;;;;;4896595;29;20232;-89
2023/11/03 20:20:59;;;;;;;5.93;2.83;;;;;;;;;;4896349;29;20185;-88
2023/11/03 20:24:04;;;;;;;4.30;2.60;;;;;;;;;;4907426;29;20192;-89
2023/11/03 20:27:08;;;;;;;3.37;2.50;;;;;;;;;;4895994;29;20229;-88
2023/11/03 20:30:13;;;;;;;2.87;2.50;;;;;;;;;;4907074;29;20663;-89
2023/11/03 20:33:19;;;;;;;2.50;2.30;;;;;;;;;;4907226;29;20192;-88
2023/11/03 20:36:27;;;;;;;3.30;2.33;;;;;;;;;;4907179;29;20236;-89
2023/11/03 20:39:31;;;;;;;4.20;2.97;;;;;;;;;;4896540;29;20184;-89
2023/11/03 20:42:37;;;;;;;4.07;2.90;;;;;;;;;;4906727;29;20189;-89
2023/11/03 20:45:43;;;;;;;8.23;3.30;;;;;;;;;;4906708;29;20185;-89
2023/11/03 20:48:47;;;;;;;3.37;2.57;;;;;;;;;;4906752;29;20193;-89
2023/11/03 20:51:51;;;;;;;5.07;2.97;;;;;;;;;;4896221;29;20192;-89
2023/11/03 20:54:56;;;;;;;5.17;2.67;;;;;;;;;;4906996;29;20554;-89
2023/11/03 20:58:01;;;;;;;2.87;2.47;;;;;;;;;;4907154;29;20189;-83
2023/11/03 21:01:06;;;;;;;4.03;2.57;;;;;;;;;;4919721;29;20201;-90
2023/11/03 21:04:11;;;;;;;7.03;2.60;;;;;;;;;;4896787;29;20181;-90
2023/11/03 21:07:15;;;;;;;4.17;2.07;;;;;;;;;;4906292;29;20224;-90
2023/11/03 21:10:19;;;;;;;3.20;2.47;;;;;;;;;;4917202;29;20189;-90
2023/11/03 21:13:26;;;;;;;2.93;2.20;;;;;;;;;;4895601;29;20188;-90
2023/11/03 21:16:30;;;;;;;2.90;2.10;;;;;;;;;;4906264;29;20233;-90
2023/11/03 21:19:36;;;;;;;3.80;2.00;;;;;;;;;;4895552;29;20193;-89
2023/11/03 21:22:42;;;;;;;3.50;2.43;;;;;;;;;;4918196;29;20190;-90
2023/11/03 21:25:46;;;;;;;3.90;2.37;;;;;;;;;;4917003;29;20189;-90
2023/11/03 21:28:50;;;;;;;3.60;2.43;;;;;;;;;;4906397;29;20635;-90